TAF KEYW
KEYW 280522Z 2806/2906 35006KT P6SM SKC FM280900 02005KT P6SM SKC FM282100 35005KT P6SM SKC=
METAR KEYW
KEYW 280753Z AUTO 00000KT 10SM CLR 17/15 A3004 RMK AO2 SLP172 T01720150 ?
KEYW 280653Z AUTO 35004KT 10SM CLR 18/16 A3005 RMK AO2 SLP174 T01830156 ?
KEYW 280553Z AUTO 33005KT 10SM CLR 19/17 A3005 RMK AO2 SLP176 T01940167 10206 20189 58011 ?
KEYW 280453Z AUTO 35005KT 10SM CLR 19/17 A3007 RMK AO2 SLP181 T01940167 402390183 ?
KEYW 280353Z AUTO 34007KT 10SM CLR 20/17 A3008 RMK AO2 SLP184 T02000167 ?
WC KEYW
WS KEYW
WV KEYW